Time;durP1;ratioP1;P1;durP2;ratioP2;P2;SDS_P1;SDS_P2;PMS_P1;PMS_P2;Temp;Humidity;BMP_temperature;BMP_pressure;BME280_temperature;BME280_humidity;BME280_pressure;Samples;Min_cycle;Max_cycle;Signal;HPM_P1;HPM_P2
2022/04/04 00:01:23;;;;;;;0.10;0.10;;;;;;;5.83;62.07;101965.34;5051732;28;20033;-82
2022/04/04 00:03:49;;;;;;;0.10;0.10;;;;;;;5.86;62.64;101964.50;5054473;28;20017;-80
2022/04/04 00:06:15;;;;;;;0.10;0.10;;;;;;;5.85;62.41;101964.50;5041542;28;20401;-81
2022/04/04 00:08:42;;;;;;;0.10;0.10;;;;;;;5.78;62.74;101959.13;5040346;28;20037;-81
2022/04/04 00:11:08;;;;;;;0.10;0.10;;;;;;;5.97;62.05;101959.44;5039151;28;20064;-81
2022/04/04 00:13:34;;;;;;;0.10;0.10;;;;;;;5.94;61.84;101951.50;5057191;28;20019;-80
2022/04/04 00:16:00;;;;;;;0.20;0.20;;;;;;;5.98;61.69;101951.59;5062613;28;20412;-81
2022/04/04 00:18:27;;;;;;;0.10;0.10;;;;;;;6.03;61.62;101930.66;5049226;28;20037;-81
2022/04/04 00:20:53;;;;;;;0.20;0.20;;;;;;;5.97;61.74;101928.75;5043193;28;20079;-81
2022/04/04 00:23:19;;;;;;;0.10;0.10;;;;;;;5.94;61.57;101938.34;5046002;28;20071;-81
2022/04/04 00:25:48;;;;;;;0.10;0.10;;;;;;;5.93;62.16;101926.03;5035603;28;20456;-81
2022/04/04 00:28:15;;;;;;;0.10;0.10;;;;;;;5.96;62.43;101926.09;5038829;28;20036;-81
2022/04/04 00:30:42;;;;;;;0.10;0.10;;;;;;;5.95;62.20;101913.81;5044483;28;20064;-81
2022/04/04 00:33:09;;;;;;;0.10;0.10;;;;;;;6.00;62.34;101914.78;5046791;28;20052;-81
2022/04/04 00:35:35;;;;;;;0.30;0.30;;;;;;;6.03;61.28;101908.69;5047395;28;20116;-81
2022/04/04 00:38:03;;;;;;;0.10;0.10;;;;;;;5.96;62.01;101907.69;5034703;28;20040;-82
2022/04/04 00:40:30;;;;;;;0.10;0.10;;;;;;;5.97;61.98;101905.06;5050140;28;20033;-81
2022/04/04 00:42:57;;;;;;;0.10;0.10;;;;;;;5.99;62.47;101897.25;5040571;28;20060;-80
2022/04/04 00:45:23;;;;;;;0.10;0.10;;;;;;;6.08;61.80;101897.41;5042061;28;20457;-80
2022/04/04 00:47:51;;;;;;;0.10;0.10;;;;;;;6.04;61.90;101890.28;5039895;28;20029;-81
2022/04/04 00:50:17;;;;;;;0.10;0.10;;;;;;;6.01;62.25;101892.91;5040392;28;20120;-81
2022/04/04 00:52:43;;;;;;;0.13;0.13;;;;;;;6.00;62.25;101880.59;5039738;28;20035;-81
2022/04/04 00:55:10;;;;;;;0.10;0.10;;;;;;;6.05;62.36;101878.91;5037535;28;20091;-82
2022/04/04 00:57:37;;;;;;;0.30;0.30;;;;;;;6.04;62.26;101877.13;5038276;28;20024;-81
2022/04/04 01:00:07;;;;;;;0.10;0.10;;;;;;;6.06;62.14;101874.56;5046208;28;20406;-81
2022/04/04 01:02:33;;;;;;;0.10;0.10;;;;;;;6.05;62.57;101854.38;5041524;28;20029;-80
2022/04/04 01:04:59;;;;;;;4.13;0.85;;;;;;;6.13;62.11;101852.72;5009429;22;20515;-78
2022/04/04 01:07:25;;;;;;;0.10;0.10;;;;;;;6.11;62.59;101849.19;4987385;28;20069;-78
2022/04/04 01:09:51;;;;;;;0.10;0.10;;;;;;;6.08;62.95;101847.41;4991881;28;20023;-77
2022/04/04 01:12:19;;;;;;;0.10;0.10;;;;;;;6.15;62.67;101841.34;4989383;28;20045;-78
2022/04/04 01:14:48;;;;;;;0.10;0.10;;;;;;;6.16;62.82;101837.00;4991434;28;20034;-77
2022/04/04 01:17:16;;;;;;;0.17;0.17;;;;;;;6.24;62.79;101834.47;4992543;28;20408;-77
2022/04/04 01:19:42;;;;;;;0.20;0.20;;;;;;;6.32;62.22;101830.19;5002987;28;20049;-77
2022/04/04 01:22:12;;;;;;;0.20;0.20;;;;;;;6.26;62.21;101825.72;4992947;28;20111;-78
2022/04/04 01:24:38;;;;;;;0.10;0.10;;;;;;;6.25;62.83;101823.94;4996822;28;20097;-77
2022/04/04 01:27:07;;;;;;;0.10;0.10;;;;;;;6.28;62.74;101812.56;5002233;28;20428;-78
2022/04/04 01:29:34;;;;;;;0.10;0.10;;;;;;;6.38;62.51;101808.31;5002525;28;20033;-78
2022/04/04 01:32:01;;;;;;;0.20;0.20;;;;;;;6.34;62.61;101804.75;5004865;28;20061;-77
2022/04/04 01:34:29;;;;;;;0.10;0.10;;;;;;;6.40;62.74;101801.34;5002962;28;20040;-77
2022/04/04 01:36:55;;;;;;;0.10;0.10;;;;;;;6.47;62.30;101797.91;4991218;28;20037;-77
2022/04/04 01:39:22;;;;;;;0.10;0.10;;;;;;;6.54;62.56;101794.50;4992584;28;20036;-78
2022/04/04 01:41:48;;;;;;;0.15;0.15;;;;;;;6.62;61.91;101786.69;4997312;28;20080;-78
2022/04/04 01:44:15;;;;;;;0.20;0.20;;;;;;;6.58;62.15;101783.13;5001036;28;20084;-78
2022/04/04 01:46:41;;;;;;;0.10;0.10;;;;;;;6.56;62.29;101769.06;5004229;28;20088;-78
2022/04/04 01:49:08;;;;;;;0.15;0.15;;;;;;;6.63;62.38;101772.66;4994767;28;20116;-78
2022/04/04 01:51:36;;;;;;;0.10;0.10;;;;;;;6.70;62.33;101758.66;4997251;28;20484;-78
2022/04/04 01:54:03;;;;;;;0.10;0.10;;;;;;;6.64;62.46;101755.97;4995512;28;20092;-78
2022/04/04 01:56:30;;;;;;;0.35;0.35;;;;;;;6.74;61.79;101744.69;5004396;28;20032;-78
2022/04/04 01:58:57;;;;;;;0.10;0.10;;;;;;;6.82;61.90;101746.50;4998600;28;20046;-78
2022/04/04 02:01:24;;;;;;;0.10;0.10;;;;;;;6.67;62.32;101742.84;4989261;28;20108;-78
2022/04/04 02:03:54;;;;;;;0.10;0.10;;;;;;;6.72;62.45;101727.09;4991746;28;20400;-77
2022/04/04 02:06:20;;;;;;;0.10;0.10;;;;;;;6.81;62.24;101727.19;4997535;28;20029;-77
2022/04/04 02:08:47;;;;;;;0.10;0.10;;;;;;;6.78;62.45;101725.41;5002303;28;20120;-77
2022/04/04 02:11:15;;;;;;;0.10;0.10;;;;;;;6.84;62.15;101718.41;5007484;28;20068;-78
2022/04/04 02:13:42;;;;;;;0.32;0.32;;;;;;;6.90;61.88;101718.47;4995077;28;20052;-78
2022/04/04 02:16:09;;;;;;;0.10;0.10;;;;;;;6.93;61.64;101710.63;5000919;28;20096;-78
2022/04/04 02:18:35;;;;;;;0.10;0.10;;;;;;;6.93;61.77;101700.09;5004205;28;20030;-78
2022/04/04 02:21:04;;;;;;;0.10;0.10;;;;;;;7.07;61.42;101692.28;4999470;28;20037;-77
2022/04/04 02:23:30;;;;;;;0.10;0.10;;;;;;;6.94;61.75;101697.44;4997892;28;20033;-78
2022/04/04 02:25:57;;;;;;;0.10;0.10;;;;;;;7.06;61.18;101677.34;4995726;28;20037;-77
2022/04/04 02:28:25;;;;;;;0.10;0.10;;;;;;;7.04;61.11;101679.97;4997530;28;20026;-78
2022/04/04 02:30:52;;;;;;;0.10;0.10;;;;;;;7.09;61.05;101686.16;4993089;28;20121;-78
2022/04/04 02:33:19;;;;;;;0.25;0.25;;;;;;;7.17;60.78;101673.03;4993781;28;20086;-78
2022/04/04 02:35:46;;;;;;;0.30;0.30;;;;;;;7.21;60.96;101666.03;4993843;28;20030;-77
2022/04/04 02:38:13;;;;;;;0.00;0.00;;;;;;;7.21;60.85;101659.00;4993063;28;20433;-78
2022/04/04 02:40:40;;;;;;;0.30;0.30;;;;;;;7.29;60.53;101653.81;4992634;28;20116;-78
2022/04/04 02:43:08;;;;;;;0.30;0.30;;;;;;;7.20;60.96;101653.72;4999782;28;20076;-78
2022/04/04 02:45:35;;;;;;;0.05;0.05;;;;;;;7.24;60.90;101644.97;4996087;28;20392;-78
2022/04/04 02:48:02;;;;;;;0.70;0.70;;;;;;;7.29;60.63;101632.72;4999177;28;20040;-78
2022/04/04 02:50:29;;;;;;;1.02;0.50;;;;;;;7.18;61.08;101627.38;5004443;28;20048;-78
2022/04/04 02:52:55;;;;;;;0.22;0.22;;;;;;;7.29;60.71;101622.16;5000627;28;20026;-78
2022/04/04 02:58:09;;;;;;;0.10;0.10;;;;;;;7.28;60.82;101607.22;4995070;28;20053;-78
2022/04/04 03:00:35;;;;;;;0.10;0.10;;;;;;;7.33;60.41;101607.22;5001170;28;20033;-78
2022/04/04 03:03:01;;;;;;;0.10;0.10;;;;;;;7.26;60.81;101596.69;4998885;28;20026;-78
2022/04/04 03:05:28;;;;;;;0.10;0.10;;;;;;;7.32;60.46;101602.84;4995200;28;20045;-78
2022/04/04 03:07:54;;;;;;;0.10;0.10;;;;;;;7.21;61.16;101593.09;4999994;28;20034;-78
2022/04/04 03:10:20;;;;;;;0.10;0.10;;;;;;;7.20;60.78;101580.81;5004920;28;20030;-78
2022/04/04 03:12:49;;;;;;;0.10;0.10;;;;;;;7.31;60.71;101586.13;5000762;28;20474;-78
2022/04/04 03:15:18;;;;;;;0.10;0.10;;;;;;;7.27;60.47;101576.47;4992859;28;20058;-78
2022/04/04 03:17:48;;;;;;;0.10;0.10;;;;;;;7.24;61.08;101577.31;4992307;28;20112;-77
2022/04/04 03:20:16;;;;;;;0.10;0.10;;;;;;;7.18;61.25;101566.75;5000598;28;20065;-77
2022/04/04 03:22:44;;;;;;;0.10;0.10;;;;;;;7.20;61.22;101569.38;5002883;28;20029;-77
2022/04/04 03:25:12;;;;;;;0.10;0.10;;;;;;;7.28;60.44;101557.13;5000711;28;20034;-77
2022/04/04 03:27:40;;;;;;;0.20;0.20;;;;;;;7.29;60.75;101543.97;5001898;28;20022;-78
2022/04/04 03:30:08;;;;;;;0.10;0.10;;;;;;;7.18;60.68;101539.50;4996425;28;20030;-78
2022/04/04 03:32:35;;;;;;;0.20;0.20;;;;;;;7.31;60.35;101538.69;4993525;28;20121;-78
2022/04/04 03:35:01;;;;;;;0.30;0.30;;;;;;;7.29;60.52;101537.81;5004137;28;20054;-78
2022/04/04 03:37:28;;;;;;;0.50;0.50;;;;;;;7.28;60.42;101526.38;4994385;28;20072;-78
2022/04/04 03:39:54;;;;;;;8.50;4.20;;;;;;;7.31;60.36;101514.09;4995797;28;20034;-78
2022/04/04 03:42:21;;;;;;;0.10;0.10;;;;;;;7.38;59.81;101518.53;5000851;28;20030;-78
2022/04/04 03:44:47;;;;;;;0.50;0.45;;;;;;;7.31;59.79;101504.41;5003444;28;20037;-78
2022/04/04 03:47:13;;;;;;;0.10;0.10;;;;;;;7.35;59.80;101506.22;4995168;28;20499;-78
2022/04/04 03:49:39;;;;;;;0.10;0.10;;;;;;;7.35;59.79;101492.13;5001387;28;20040;-78
2022/04/04 03:52:06;;;;;;;0.13;0.13;;;;;;;7.46;59.65;101487.78;4995544;28;20381;-78
2022/04/04 03:54:33;;;;;;;0.55;0.55;;;;;;;7.41;59.39;101490.41;4995972;28;20373;-78
2022/04/04 03:57:00;;;;;;;0.10;0.10;;;;;;;7.44;59.51;101485.13;5000958;28;20503;-78
2022/04/04 03:59:26;;;;;;;0.10;0.10;;;;;;;7.52;59.28;101476.38;4999061;28;20049;-78
2022/04/04 04:01:57;;;;;;;0.10;0.10;;;;;;;7.54;58.80;101474.59;5002770;28;20037;-79
2022/04/04 04:04:24;;;;;;;0.68;0.68;;;;;;;7.57;58.39;101469.34;4996687;28;20030;-79
2022/04/04 04:06:51;;;;;;;0.35;0.35;;;;;;;7.63;58.70;101464.09;4995245;28;20543;-79
2022/04/04 04:09:18;;;;;;;1.30;1.23;;;;;;;7.62;58.51;101462.34;4998377;28;20061;-78
2022/04/04 04:11:45;;;;;;;0.10;0.10;;;;;;;7.64;58.12;101455.31;4992431;28;20062;-79
2022/04/04 04:14:11;;;;;;;0.95;0.95;;;;;;;7.79;58.02;101451.81;4995408;28;20049;-78
2022/04/04 04:16:37;;;;;;;0.57;0.57;;;;;;;7.69;58.35;101442.09;5006177;28;20033;-79
2022/04/04 04:19:03;;;;;;;2.05;1.95;;;;;;;7.87;57.42;101436.00;4995545;28;20062;-79
2022/04/04 04:21:29;;;;;;;0.75;0.50;;;;;;;7.86;57.81;101434.22;4995351;28;20061;-79
2022/04/04 04:23:56;;;;;;;0.10;0.10;;;;;;;7.91;57.80;101438.66;4997529;28;20022;-79
2022/04/04 04:26:23;;;;;;;2.38;0.50;;;;;;;7.73;57.90;101428.94;4998150;28;20072;-79
2022/04/04 04:28:49;;;;;;;0.10;0.10;;;;;;;7.81;57.52;101412.25;5000967;28;20029;-78
2022/04/04 04:31:17;;;;;;;0.10;0.10;;;;;;;7.96;56.99;101412.22;5006953;28;20037;-78
2022/04/04 04:33:44;;;;;;;0.10;0.10;;;;;;;7.97;57.56;101400.81;4995416;28;20416;-78
2022/04/04 04:36:10;;;;;;;2.03;0.95;;;;;;;8.02;57.25;101404.31;5001191;28;20034;-78
2022/04/04 04:38:37;;;;;;;0.10;0.10;;;;;;;7.86;57.37;101408.75;5004843;28;20025;-78
2022/04/04 04:41:03;;;;;;;0.22;0.22;;;;;;;7.84;57.25;101393.75;5000962;28;20180;-78
2022/04/04 04:43:29;;;;;;;0.25;0.25;;;;;;;7.99;57.00;101387.59;5003198;28;20033;-78
2022/04/04 04:45:55;;;;;;;0.10;0.10;;;;;;;8.04;57.01;101381.47;5005049;28;20748;-78
2022/04/04 04:48:22;;;;;;;0.63;0.63;;;;;;;7.93;56.98;101372.66;5000124;28;20439;-78
2022/04/04 04:50:48;;;;;;;0.10;0.10;;;;;;;7.93;56.61;101377.94;4992374;28;20049;-78
2022/04/04 04:53:14;;;;;;;0.10;0.10;;;;;;;7.93;56.83;101356.84;5005853;28;20504;-78
2022/04/04 04:55:41;;;;;;;0.17;0.17;;;;;;;7.96;56.61;101356.81;4999848;28;20022;-78
2022/04/04 04:58:07;;;;;;;0.05;0.05;;;;;;;7.92;56.61;101349.78;5009491;28;20030;-78
2022/04/04 05:00:33;;;;;;;0.10;0.10;;;;;;;7.99;56.41;101345.38;5005453;28;20057;-78
2022/04/04 05:03:30;;;;;;;0.15;0.15;;;;;;;8.05;55.92;101335.72;4992864;28;20029;-78
2022/04/04 05:05:46;;;;;;;0.10;0.10;;;;;;;7.96;56.25;101340.13;4992642;28;20039;-78
2022/04/04 05:08:12;;;;;;;0.10;0.10;;;;;;;8.05;55.71;101330.44;4993373;28;20026;-79
2022/04/04 05:10:38;;;;;;;0.93;0.88;;;;;;;8.15;55.51;101323.38;4989470;28;20026;-79
2022/04/04 05:13:04;;;;;;;0.10;0.10;;;;;;;8.18;55.69;101314.56;4991722;28;20019;-78
2022/04/04 05:15:30;;;;;;;0.10;0.10;;;;;;;8.07;55.78;101312.84;4993471;28;20061;-78
2022/04/04 05:17:57;;;;;;;0.10;0.10;;;;;;;7.92;56.16;101304.94;4995195;28;20114;-78
2022/04/04 05:20:23;;;;;;;0.10;0.10;;;;;;;8.16;55.89;101295.22;4995045;28;20022;-78
2022/04/04 05:22:49;;;;;;;0.10;0.10;;;;;;;8.01;55.41;101302.31;4991626;28;20019;-78
2022/04/04 05:25:15;;;;;;;0.30;0.30;;;;;;;8.14;55.87;101294.31;4997980;28;20030;-78
2022/04/04 05:27:42;;;;;;;0.20;0.20;;;;;;;8.19;55.95;101289.94;4995530;28;20049;-78
2022/04/04 05:30:09;;;;;;;0.63;0.63;;;;;;;8.22;55.86;101271.44;4995638;28;20206;-78
2022/04/04 05:32:36;;;;;;;0.32;0.32;;;;;;;8.18;56.14;101264.44;4993368;28;20034;-78
2022/04/04 05:35:06;;;;;;;0.10;0.10;;;;;;;8.28;55.97;101263.50;4995469;28;20045;-78
2022/04/04 05:37:33;;;;;;;0.20;0.20;;;;;;;8.21;56.04;101256.47;4989317;28;20484;-78
2022/04/04 05:40:00;;;;;;;0.10;0.10;;;;;;;8.31;55.38;101263.50;4985978;28;20087;-77
2022/04/04 05:42:26;;;;;;;0.05;0.05;;;;;;;8.26;55.98;101254.69;5001818;28;20380;-78
2022/04/04 05:44:52;;;;;;;0.10;0.10;;;;;;;8.16;55.87;101248.59;4992695;28;20474;-78
2022/04/04 05:47:20;;;;;;;0.40;0.40;;;;;;;8.31;55.90;101252.94;4992239;28;20042;-78
2022/04/04 05:49:48;;;;;;;0.10;0.10;;;;;;;8.39;55.80;101248.50;4996322;28;20023;-78
2022/04/04 05:52:15;;;;;;;0.22;0.22;;;;;;;8.30;55.61;101245.91;4993044;28;20026;-78
2022/04/04 05:54:57;;;;;;;0.47;0.47;;;;;;;8.38;55.20;101274.91;4997381;28;20033;-78
2022/04/04 05:57:26;;;;;;;0.10;0.10;;;;;;;8.34;56.13;101247.63;4996390;28;20030;-78
2022/04/04 05:59:52;;;;;;;0.32;0.32;;;;;;;8.38;55.64;101228.25;4999656;28;20029;-78
2022/04/04 06:02:19;;;;;;;0.15;0.15;;;;;;;8.39;56.13;101224.72;4995908;28;20049;-77
2022/04/04 06:04:46;;;;;;;2.28;1.85;;;;;;;8.26;57.04;101234.47;4995351;28;20030;-78
2022/04/04 06:07:12;;;;;;;0.38;0.38;;;;;;;8.32;56.66;101227.41;4999835;28;20033;-78
2022/04/04 06:09:38;;;;;;;0.10;0.10;;;;;;;8.31;57.00;101234.47;5003652;28;20411;-77
2022/04/04 06:12:05;;;;;;;0.10;0.10;;;;;;;8.33;57.48;101223.88;4994347;28;20034;-78
2022/04/04 06:14:31;;;;;;;50.42;3.83;;;;;;;8.32;57.83;101217.72;4995560;28;20038;-78
2022/04/04 06:16:57;;;;;;;0.10;0.10;;;;;;;8.48;57.36;101218.56;4994440;28;20033;-77
2022/04/04 06:19:23;;;;;;;0.60;0.60;;;;;;;8.45;58.29;101255.53;4995881;28;20520;-77
2022/04/04 06:21:49;;;;;;;0.10;0.10;;;;;;;8.37;59.51;101210.66;4998217;28;20038;-78
2022/04/04 06:24:15;;;;;;;1.05;1.02;;;;;;;8.33;59.81;101211.56;4993764;28;20038;-77
2022/04/04 06:26:41;;;;;;;0.10;0.10;;;;;;;8.22;60.06;101205.44;4992943;28;20042;-77
2022/04/04 06:29:09;;;;;;;0.10;0.10;;;;;;;8.08;60.84;101210.78;4993147;28;20042;-77
2022/04/04 06:31:36;;;;;;;0.10;0.10;;;;;;;7.99;61.29;101222.25;4997620;28;20578;-78
2022/04/04 06:34:04;;;;;;;0.10;0.10;;;;;;;8.08;61.81;101208.16;4991261;28;20389;-77
2022/04/04 06:36:31;;;;;;;0.17;0.17;;;;;;;8.13;61.61;101189.66;4992961;28;20057;-77
2022/04/04 06:38:58;;;;;;;0.30;0.30;;;;;;;7.96;62.45;101187.09;4993430;28;20034;-78
2022/04/04 06:41:24;;;;;;;0.10;0.10;;;;;;;7.93;62.52;101186.19;4992527;28;20050;-77
2022/04/04 06:43:51;;;;;;;0.10;0.10;;;;;;;7.97;62.62;101163.31;4993450;28;20034;-77
2022/04/04 06:46:18;;;;;;;0.17;0.17;;;;;;;7.76;63.09;101159.91;4994243;28;20117;-77
2022/04/04 06:48:45;;;;;;;0.10;0.10;;;;;;;7.96;62.38;101156.28;4993343;28;20121;-77
2022/04/04 06:51:11;;;;;;;0.10;0.10;;;;;;;7.89;63.35;101160.72;5001529;28;20038;-77
2022/04/04 06:53:38;;;;;;;0.15;0.15;;;;;;;7.95;62.95;101149.28;5010073;28;20033;-77
2022/04/04 06:56:05;;;;;;;0.10;0.10;;;;;;;7.92;63.72;101149.28;5001354;28;20057;-78
2022/04/04 06:58:31;;;;;;;0.60;0.60;;;;;;;7.97;63.48;101152.75;5000064;28;20042;-78
2022/04/04 07:00:57;;;;;;;0.10;0.10;;;;;;;7.96;62.92;101151.00;4994463;28;20042;-78
2022/04/04 07:03:24;;;;;;;0.10;0.10;;;;;;;7.85;63.92;101142.25;4995539;28;20125;-79
2022/04/04 07:05:50;;;;;;;0.10;0.10;;;;;;;7.91;63.77;101137.84;5060475;22;20063;-82
2022/04/04 07:08:16;;;;;;;0.17;0.17;;;;;;;7.94;64.44;101136.97;5029692;28;20040;-82
2022/04/04 07:10:43;;;;;;;0.50;0.50;;;;;;;7.77;64.03;101124.69;5036848;28;20033;-81
2022/04/04 07:13:09;;;;;;;0.13;0.13;;;;;;;7.71;64.93;101137.94;5027853;28;20034;-81
2022/04/04 07:15:35;;;;;;;1.10;1.00;;;;;;;7.85;64.36;101131.72;5037247;28;20160;-80
2022/04/04 07:18:02;;;;;;;0.40;0.40;;;;;;;7.73;65.02;101117.69;5036010;28;20111;-80
2022/04/04 07:20:28;;;;;;;0.60;0.32;;;;;;;7.83;65.16;101112.41;5026830;28;20026;-81
2022/04/04 07:22:54;;;;;;;0.20;0.20;;;;;;;7.83;64.86;101123.81;5031601;28;20025;-81
2022/04/04 07:25:22;;;;;;;2.33;1.40;;;;;;;7.61;66.06;101110.72;5033446;28;20089;-82
2022/04/04 07:27:49;;;;;;;0.85;0.85;;;;;;;7.73;65.34;101101.00;5034960;28;20021;-82
2022/04/04 07:30:18;;;;;;;0.30;0.30;;;;;;;7.71;65.79;101098.38;5037470;28;20041;-83
2022/04/04 07:32:46;;;;;;;0.20;0.20;;;;;;;7.62;66.96;101111.56;5039081;28;20073;-80
2022/04/04 07:35:12;;;;;;;0.10;0.10;;;;;;;7.70;66.79;101096.63;5029819;28;20036;-80
2022/04/04 07:37:43;;;;;;;0.10;0.10;;;;;;;7.83;66.97;101097.44;5035902;28;20469;-83
2022/04/04 07:40:13;;;;;;;0.15;0.15;;;;;;;7.84;66.10;101099.19;5037430;28;20033;-83
2022/04/04 07:42:40;;;;;;;2.15;1.85;;;;;;;7.84;66.83;101096.56;5034849;28;20079;-82
2022/04/04 07:45:09;;;;;;;0.20;0.20;;;;;;;7.81;66.85;101114.16;5037821;28;20042;-81
2022/04/04 07:47:36;;;;;;;0.10;0.10;;;;;;;7.75;66.84;101094.84;5029634;28;20101;-82
2022/04/04 07:50:04;;;;;;;0.10;0.10;;;;;;;7.63;67.17;101129.16;5038974;28;20543;-82
2022/04/04 07:52:30;;;;;;;0.00;0.00;;;;;;;7.71;67.10;101086.94;5034847;28;20037;-83
2022/04/04 07:54:56;;;;;;;0.10;0.10;;;;;;;7.71;67.10;101086.94;5037370;28;20515;-83
2022/04/04 07:57:23;;;;;;;0.10;0.10;;;;;;;7.73;67.28;101064.94;5033247;28;20029;-83
2022/04/04 07:59:51;;;;;;;0.10;0.10;;;;;;;7.72;67.09;101068.44;5033765;28;20033;-82
2022/04/04 08:02:18;;;;;;;0.10;0.10;;;;;;;7.66;67.17;101078.16;5040577;28;20535;-83
2022/04/04 08:04:44;;;;;;;0.10;0.10;;;;;;;7.66;66.95;101057.06;5035926;28;20100;-81
2022/04/04 08:07:10;;;;;;;0.10;0.10;;;;;;;7.70;66.81;101043.88;5037678;28;20047;-81
2022/04/04 08:09:36;;;;;;;0.10;0.10;;;;;;;7.57;68.14;101064.13;5035554;28;20028;-82
2022/04/04 08:12:06;;;;;;;0.10;0.10;;;;;;;7.49;68.28;101083.50;5039127;28;20057;-82
2022/04/04 08:14:36;;;;;;;0.10;0.10;;;;;;;7.49;67.87;101086.13;5041530;28;20025;-82
2022/04/04 08:17:03;;;;;;;0.10;0.10;;;;;;;7.26;68.21;101082.69;5049276;28;20052;-83
2022/04/04 08:19:30;;;;;;;0.10;0.10;;;;;;;7.50;67.83;101040.44;5060429;28;20037;-83
2022/04/04 08:21:56;;;;;;;0.10;0.10;;;;;;;7.51;67.80;101043.06;5051171;28;20021;-83
2022/04/04 08:24:22;;;;;;;0.00;0.00;;;;;;;7.39;68.47;101065.09;5040036;28;20068;-82
2022/04/04 08:26:49;;;;;;;0.10;0.10;;;;;;;7.44;68.53;101031.66;5045136;28;20029;-82
2022/04/04 08:29:15;;;;;;;0.10;0.10;;;;;;;7.31;68.94;101035.22;5032938;28;20056;-84
2022/04/04 08:31:41;;;;;;;0.10;0.10;;;;;;;7.51;68.42;101039.56;5031872;28;20033;-83
2022/04/04 08:34:10;;;;;;;0.10;0.10;;;;;;;7.45;68.99;101027.25;5041131;28;20034;-82
2022/04/04 08:36:37;;;;;;;0.10;0.10;;;;;;;7.49;69.48;101018.47;5035860;28;20044;-83
2022/04/04 08:39:04;;;;;;;0.10;0.10;;;;;;;7.53;68.88;101028.13;5032470;28;20025;-83
2022/04/04 08:41:32;;;;;;;0.13;0.13;;;;;;;7.32;70.00;101015.91;5039372;28;20021;-81
2022/04/04 08:44:00;;;;;;;0.10;0.10;;;;;;;7.36;69.50;101008.84;5032448;28;20132;-80
2022/04/04 08:46:26;;;;;;;0.15;0.15;;;;;;;7.61;68.76;101006.97;5034675;28;20025;-81
2022/04/04 08:48:55;;;;;;;0.43;0.43;;;;;;;7.45;69.21;100991.25;5040948;28;20041;-83
2022/04/04 08:51:22;;;;;;;0.10;0.10;;;;;;;7.41;69.63;101005.34;5042826;28;20171;-85
2022/04/04 08:53:49;;;;;;;0.10;0.10;;;;;;;7.35;70.12;100994.81;5045776;28;20497;-84
2022/04/04 08:56:17;;;;;;;0.95;0.95;;;;;;;7.49;69.65;101030.75;5043792;28;20021;-83
2022/04/04 08:58:44;;;;;;;0.32;0.32;;;;;;;7.57;69.55;100989.44;5044488;28;20022;-83
2022/04/04 09:01:10;;;;;;;0.80;0.55;;;;;;;7.64;69.93;100990.25;5043063;28;20029;-83
2022/04/04 09:03:36;;;;;;;0.10;0.10;;;;;;;7.57;69.86;100995.56;5047251;28;20033;-84
2022/04/04 09:06:04;;;;;;;0.10;0.10;;;;;;;7.56;69.83;100993.84;5040060;28;20041;-83
2022/04/04 09:08:46;;;;;;;0.10;0.10;;;;;;;7.73;69.73;100975.25;5040183;28;20055;-87
2022/04/04 09:11:13;;;;;;;1.17;1.02;;;;;;;7.68;70.16;100965.63;5044436;28;20029;-84
2022/04/04 09:13:40;;;;;;;0.10;0.10;;;;;;;7.72;70.52;100976.13;5041643;28;20033;-83
2022/04/04 09:16:08;;;;;;;0.10;0.10;;;;;;;7.75;70.58;100976.13;5042727;28;20056;-82
2022/04/04 09:24:11;;;;;;;0.10;0.10;;;;;;;7.83;70.76;100976.09;5132303;27;20395;-77
2022/04/04 09:34:30;;;;;;;0.20;0.20;;;;;;;8.09;70.92;100943.38;5094736;27;20396;-78
2022/04/04 09:36:58;;;;;;;0.10;0.10;;;;;;;8.16;70.81;100981.13;5094488;28;20032;-77
2022/04/04 09:39:24;;;;;;;0.30;0.30;;;;;;;8.25;70.99;100944.13;5096641;28;20031;-78
2022/04/04 09:41:50;;;;;;;0.10;0.10;;;;;;;8.25;70.95;100936.19;5091790;28;20039;-78
2022/04/04 09:44:25;;;;;;;0.10;0.10;;;;;;;8.22;70.51;100930.94;5089421;28;20032;-76
2022/04/04 09:46:51;;;;;;;0.08;0.08;;;;;;;8.29;70.95;100927.34;5088385;28;20153;-77
2022/04/04 09:49:20;;;;;;;0.10;0.10;;;;;;;8.16;71.14;100939.78;5079047;28;20510;-78
2022/04/04 09:51:51;;;;;;;0.10;0.10;;;;;;;8.22;70.68;100952.94;5090408;28;20024;-78
2022/04/04 09:57:13;;;;;;;0.10;0.10;;;;;;;8.14;70.81;100931.00;5123454;27;20470;-78
2022/04/04 09:59:41;;;;;;;0.10;0.10;;;;;;;8.15;70.66;100934.50;5095666;28;20107;-78
2022/04/04 10:02:08;;;;;;;0.08;0.08;;;;;;;8.09;71.54;100946.88;5093750;28;20032;-78
2022/04/04 10:04:35;;;;;;;0.15;0.15;;;;;;;8.23;70.75;100927.41;5091074;28;20540;-78
2022/04/04 10:07:06;;;;;;;0.10;0.10;;;;;;;8.21;70.68;100924.78;5088990;28;20060;-79
2022/04/04 10:09:33;;;;;;;0.10;0.10;;;;;;;8.28;71.55;100904.47;5092566;28;20024;-78
2022/04/04 10:12:00;;;;;;;0.10;0.10;;;;;;;8.30;71.04;100904.44;5091818;28;20124;-77
2022/04/04 10:14:26;;;;;;;0.08;0.08;;;;;;;8.35;71.55;100908.81;5099058;28;20028;-78
2022/04/04 10:16:54;;;;;;;0.10;0.10;;;;;;;8.39;71.15;100892.03;5096092;28;20056;-77
2022/04/04 10:19:21;;;;;;;0.00;0.00;;;;;;;8.37;71.97;100893.84;5095134;28;20028;-78
2022/04/04 10:21:47;;;;;;;0.10;0.10;;;;;;;8.42;71.51;100885.84;5090579;28;20454;-76
2022/04/04 10:24:15;;;;;;;0.10;0.10;;;;;;;8.59;70.91;100885.72;5090205;28;20021;-77
2022/04/04 10:26:42;;;;;;;0.25;0.25;;;;;;;8.62;71.22;100887.44;5089379;28;20440;-77
2022/04/04 10:29:14;;;;;;;0.10;0.10;;;;;;;8.65;71.21;100896.22;5090407;28;20025;-78
2022/04/04 10:31:55;;;;;;;0.20;0.20;;;;;;;8.72;71.54;100889.97;5089792;28;20028;-79
2022/04/04 10:34:24;;;;;;;0.10;0.10;;;;;;;8.71;71.43;100861.81;5090334;28;20040;-78
2022/04/04 10:42:32;;;;;;;0.10;0.10;;;;;;;8.77;71.75;100867.91;5087322;27;20709;-78
2022/04/04 10:45:00;;;;;;;0.05;0.05;;;;;;;8.67;71.38;100907.66;5092046;28;20088;-80
2022/04/04 10:47:29;;;;;;;0.10;0.10;;;;;;;8.60;72.15;100870.72;5090529;28;20029;-78
2022/04/04 10:49:57;;;;;;;0.10;0.10;;;;;;;8.57;72.11;100864.63;5090788;28;20047;-80
2022/04/04 10:52:41;;;;;;;0.10;0.10;;;;;;;8.89;71.38;100849.25;5089633;28;20023;-77
2022/04/04 11:00:59;;;;;;;0.00;0.00;;;;;;;8.80;72.22;100849.34;5114661;27;20400;-80
2022/04/04 11:03:54;;;;;;;0.08;0.08;;;;;;;8.83;72.35;100844.03;5109337;28;20042;-78
2022/04/04 11:09:32;;;;;;;0.10;0.10;;;;;;;8.84;72.59;100845.81;5106200;28;20036;-78
2022/04/04 11:17:28;;;;;;;1.75;0.95;;;;;;;8.97;73.17;100826.25;5110484;27;20044;-80
2022/04/04 11:20:00;;;;;;;0.00;0.00;;;;;;;8.88;73.35;100826.38;5105522;28;20128;-78
2022/04/04 11:22:28;;;;;;;0.10;0.10;;;;;;;8.96;73.10;100815.69;5107881;28;20043;-79
2022/04/04 11:25:03;;;;;;;0.10;0.10;;;;;;;8.98;73.11;100821.84;5107309;28;20373;-79
2022/04/04 11:27:34;;;;;;;0.08;0.08;;;;;;;8.90;73.18;100829.88;5114160;28;20020;-79
2022/04/04 11:30:06;;;;;;;0.10;0.10;;;;;;;9.03;72.63;100805.03;5114158;28;20039;-79
2022/04/04 11:32:38;;;;;;;;;;;;;;;9.21;72.21;100803.00;5113204;28;20073;-79
2022/04/04 11:37:49;;;;;;;0.08;0.08;;;;;;;9.16;73.11;100794.25;5112662;27;20379;-79
2022/04/04 11:40:19;;;;;;;0.10;0.10;;;;;;;9.26;72.35;100789.69;5117715;28;20036;-78
2022/04/04 11:42:50;;;;;;;0.00;0.00;;;;;;;9.21;72.82;100803.88;5111857;28;20074;-79
2022/04/04 11:45:19;;;;;;;0.10;0.10;;;;;;;9.27;72.87;100791.44;5105602;28;20081;-79
2022/04/04 11:50:34;;;;;;;0.38;0.38;;;;;;;9.46;73.06;100789.38;5112804;27;20404;-79
2022/04/04 11:53:03;;;;;;;0.00;0.00;;;;;;;9.38;73.22;100811.56;5112576;28;20038;-79
2022/04/04 11:55:33;;;;;;;0.10;0.10;;;;;;;9.48;73.16;100790.25;5112021;28;20023;-79
2022/04/04 11:58:02;;;;;;;0.10;0.10;;;;;;;9.51;72.84;100784.91;5113401;28;20430;-78
2022/04/04 12:00:35;;;;;;;0.00;0.00;;;;;;;9.36;73.36;100794.81;5113170;28;20024;-79
2022/04/04 12:03:09;;;;;;;0.10;0.10;;;;;;;9.59;72.75;100784.78;5104640;28;20039;-79
2022/04/04 12:05:36;;;;;;;0.40;0.40;;;;;;;9.69;72.47;100763.44;5111513;28;20609;-78
2022/04/04 12:08:03;;;;;;;0.10;0.10;;;;;;;9.61;73.02;100762.69;5113092;28;20077;-79
2022/04/04 12:10:31;;;;;;;0.00;0.00;;;;;;;9.83;72.57;100764.94;5112889;28;20167;-79
2022/04/04 12:13:00;;;;;;;0.05;0.05;;;;;;;9.64;73.63;100772.34;5102709;28;20107;-79
2022/04/04 12:15:29;;;;;;;0.00;0.00;;;;;;;9.77;73.37;100773.00;5100749;28;20032;-79
2022/04/04 12:17:55;;;;;;;0.00;0.00;;;;;;;9.79;72.93;100798.53;5112935;27;20152;-79
2022/04/04 12:20:22;;;;;;;0.10;0.10;;;;;;;9.86;72.57;100772.84;5115799;28;20024;-79